createdAt,value
2022-07-29T00:00:41.945Z,15.00
2022-07-29T00:03:10.398Z,15.00
2022-07-29T00:05:41.478Z,15.10
2022-07-29T00:08:12.527Z,15.20
2022-07-29T00:10:41.456Z,15.10
2022-07-29T00:13:09.618Z,15.10
2022-07-29T00:15:38.121Z,15.00
2022-07-29T00:18:06.548Z,15.00
2022-07-29T00:20:34.740Z,15.00
2022-07-29T00:23:04.619Z,15.00
2022-07-29T00:25:32.683Z,14.80
2022-07-29T00:28:01.975Z,14.70
2022-07-29T00:30:30.300Z,14.70
2022-07-29T00:32:58.798Z,14.70
2022-07-29T00:35:44.296Z,14.80
2022-07-29T00:38:14.946Z,14.80
2022-07-29T00:40:44.488Z,14.60
2022-07-29T00:43:13.213Z,14.50
2022-07-29T00:45:41.409Z,14.40
2022-07-29T00:48:10.184Z,14.50
2022-07-29T00:50:39.673Z,14.50
2022-07-29T00:53:09.118Z,14.40
2022-07-29T00:55:39.160Z,14.50
2022-07-29T00:58:08.434Z,14.40
2022-07-29T01:00:36.949Z,14.50
2022-07-29T01:03:05.179Z,14.50
2022-07-29T01:05:49.801Z,14.60
2022-07-29T01:08:20.767Z,14.70
2022-07-29T01:10:51.671Z,14.60
2022-07-29T01:13:21.077Z,14.60
2022-07-29T01:15:54.062Z,14.70
2022-07-29T01:18:26.492Z,14.60
2022-07-29T01:21:17.875Z,14.60
2022-07-29T01:24:02.081Z,14.40
2022-07-29T01:26:47.314Z,14.20
2022-07-29T01:29:26.361Z,14.10
2022-07-29T01:32:02.931Z,14.20
2022-07-29T01:34:37.859Z,14.30
2022-07-29T01:37:17.403Z,14.30
2022-07-29T01:39:48.351Z,14.30
2022-07-29T01:42:25.724Z,14.30
2022-07-29T01:45:02.014Z,14.20
2022-07-29T01:47:37.233Z,14.30
2022-07-29T01:50:10.566Z,14.20
2022-07-29T01:52:44.263Z,14.30
2022-07-29T01:55:16.073Z,14.30
2022-07-29T01:57:47.895Z,14.20
2022-07-29T02:00:18.829Z,14.20
2022-07-29T02:02:49.725Z,14.00
2022-07-29T02:05:21.204Z,14.00
2022-07-29T02:07:51.620Z,14.10
2022-07-29T02:10:26.005Z,14.10
2022-07-29T02:12:57.056Z,14.00
2022-07-29T02:15:28.874Z,14.00
2022-07-29T02:18:00.738Z,14.00
2022-07-29T02:20:30.959Z,14.00
2022-07-29T02:23:01.164Z,14.00
2022-07-29T02:25:37.429Z,14.00
2022-07-29T02:28:08.550Z,14.00
2022-07-29T02:30:42.479Z,13.80
2022-07-29T02:33:12.388Z,13.80
2022-07-29T02:35:42.564Z,13.80
2022-07-29T02:38:31.346Z,13.70
2022-07-29T02:41:01.034Z,13.70
2022-07-29T02:43:30.946Z,13.80
2022-07-29T02:46:03.090Z,13.80
2022-07-29T02:48:46.185Z,13.70
2022-07-29T02:51:43.949Z,13.80
2022-07-29T02:54:11.822Z,13.70
2022-07-29T02:56:42.417Z,13.70
2022-07-29T02:59:13.910Z,13.60
2022-07-29T03:01:45.911Z,13.80
2022-07-29T03:04:17.208Z,13.80
2022-07-29T03:06:46.551Z,13.70
2022-07-29T03:09:15.749Z,13.60
2022-07-29T03:11:50.574Z,13.40
2022-07-29T03:14:21.558Z,13.50
2022-07-29T03:16:52.627Z,13.40
2022-07-29T03:19:22.923Z,13.40
2022-07-29T03:21:51.266Z,13.40
2022-07-29T03:24:30.882Z,13.40
2022-07-29T03:26:59.452Z,13.40
2022-07-29T03:29:32.981Z,13.30
2022-07-29T03:32:07.910Z,13.30
2022-07-29T03:34:38.476Z,13.30
2022-07-29T03:37:07.279Z,13.30
2022-07-29T03:39:41.042Z,13.30
2022-07-29T03:42:11.151Z,13.50
2022-07-29T03:44:40.696Z,13.40
2022-07-29T03:47:13.390Z,13.40
2022-07-29T03:49:42.933Z,13.50
2022-07-29T03:52:11.492Z,13.30
2022-07-29T03:54:40.118Z,13.40
2022-07-29T03:57:09.287Z,13.20
2022-07-29T03:59:38.961Z,13.20
2022-07-29T04:02:11.693Z,13.20
2022-07-29T04:04:40.011Z,13.20
2022-07-29T04:07:08.089Z,13.10
2022-07-29T04:09:36.502Z,13.00
2022-07-29T04:12:04.988Z,12.90
2022-07-29T04:14:34.728Z,12.90
2022-07-29T04:17:03.536Z,12.90
2022-07-29T04:19:33.837Z,13.00
2022-07-29T04:22:03.222Z,13.00
2022-07-29T04:24:31.769Z,13.00
2022-07-29T04:26:59.799Z,13.00
2022-07-29T04:29:27.797Z,13.00
2022-07-29T04:31:56.160Z,13.20
2022-07-29T04:34:27.959Z,13.40
2022-07-29T04:36:58.027Z,13.40
2022-07-29T04:39:27.254Z,13.30
2022-07-29T04:41:58.518Z,13.40
2022-07-29T04:44:28.905Z,13.40
2022-07-29T04:46:59.047Z,13.40
2022-07-29T04:49:27.476Z,13.40
2022-07-29T04:51:57.333Z,13.40
2022-07-29T04:54:25.563Z,13.50
2022-07-29T04:56:53.828Z,13.60
2022-07-29T04:59:22.285Z,13.60
2022-07-29T05:01:50.411Z,13.60
2022-07-29T05:04:19.633Z,13.70
2022-07-29T05:06:48.018Z,13.70
2022-07-29T05:09:17.478Z,13.60
2022-07-29T05:11:45.611Z,13.60
2022-07-29T05:14:14.082Z,13.80
2022-07-29T05:16:43.017Z,13.90
2022-07-29T05:19:14.436Z,13.90
2022-07-29T05:21:43.183Z,14.00
2022-07-29T05:24:11.261Z,14.10
2022-07-29T05:26:41.049Z,14.20
2022-07-29T05:29:43.683Z,14.40
2022-07-29T05:31:57.824Z,15.00
2022-07-29T05:34:26.471Z,14.80
2022-07-29T05:36:54.546Z,14.80
2022-07-29T05:39:22.690Z,14.50
2022-07-29T05:42:12.763Z,14.40
2022-07-29T05:44:41.171Z,14.90
2022-07-29T05:47:09.498Z,14.80
2022-07-29T05:49:38.122Z,15.20
2022-07-29T05:52:06.688Z,15.00
2022-07-29T05:54:34.771Z,14.80
2022-07-29T05:57:03.151Z,14.90
2022-07-29T05:59:32.614Z,15.00
2022-07-29T06:02:01.032Z,14.80
2022-07-29T06:04:29.218Z,14.90
2022-07-29T06:06:57.762Z,14.80
2022-07-29T06:09:26.974Z,15.10
2022-07-29T06:11:55.046Z,15.00
2022-07-29T06:14:23.417Z,15.30
2022-07-29T06:16:54.063Z,15.80
2022-07-29T06:19:22.381Z,15.90
2022-07-29T06:21:50.493Z,15.40
2022-07-29T06:24:19.157Z,15.70
2022-07-29T06:26:47.829Z,15.30
2022-07-29T06:29:15.905Z,15.10
2022-07-29T06:31:43.978Z,15.70
2022-07-29T06:34:14.219Z,15.10
2022-07-29T06:36:42.494Z,15.20
2022-07-29T06:39:12.220Z,15.80
2022-07-29T06:41:40.808Z,16.40
2022-07-29T06:44:08.871Z,15.90
2022-07-29T06:46:37.600Z,15.50
2022-07-29T06:49:06.857Z,15.60
2022-07-29T06:51:36.703Z,16.10
2022-07-29T06:54:07.107Z,16.40
2022-07-29T06:56:38.965Z,16.70
2022-07-29T06:59:09.066Z,16.80
2022-07-29T07:01:38.856Z,17.00
2022-07-29T07:04:07.326Z,17.00
2022-07-29T07:06:37.155Z,16.90
2022-07-29T07:09:05.590Z,16.30
2022-07-29T07:11:33.714Z,16.20
2022-07-29T07:14:03.720Z,16.90
2022-07-29T07:16:32.339Z,17.10
2022-07-29T07:19:00.975Z,17.00
2022-07-29T07:21:30.645Z,17.20
2022-07-29T07:24:01.204Z,17.10
2022-07-29T07:26:30.317Z,17.10
2022-07-29T07:28:58.781Z,16.80
2022-07-29T07:31:27.321Z,17.60
2022-07-29T07:33:55.623Z,18.10
2022-07-29T07:36:24.453Z,18.60
2022-07-29T07:38:52.621Z,18.60
2022-07-29T07:41:23.266Z,17.60
2022-07-29T07:43:51.414Z,17.30
2022-07-29T07:46:19.672Z,18.50
2022-07-29T07:48:47.903Z,19.20
2022-07-29T07:51:16.070Z,19.10
2022-07-29T07:53:45.639Z,19.00
2022-07-29T07:56:13.787Z,19.80
2022-07-29T07:58:43.660Z,20.10
2022-07-29T08:01:12.032Z,20.70
2022-07-29T08:03:40.453Z,21.90
2022-07-29T08:06:08.746Z,21.90
2022-07-29T08:08:36.845Z,21.40
2022-07-29T08:11:09.514Z,21.10
2022-07-29T08:13:39.716Z,20.60
2022-07-29T08:16:14.256Z,20.60
2022-07-29T08:18:43.707Z,21.10
2022-07-29T08:21:15.156Z,21.40
2022-07-29T08:23:57.699Z,22.30
2022-07-29T08:26:28.015Z,23.20
2022-07-29T08:28:56.127Z,23.10
2022-07-29T08:31:25.866Z,22.90
2022-07-29T08:33:54.267Z,22.40
2022-07-29T08:36:23.199Z,22.30
2022-07-29T08:38:52.216Z,21.60
2022-07-29T08:41:20.789Z,22.50
2022-07-29T08:43:49.010Z,22.60
2022-07-29T08:46:18.088Z,22.50
2022-07-29T08:48:48.293Z,22.40
2022-07-29T08:51:18.359Z,22.10
2022-07-29T08:53:49.684Z,22.20
2022-07-29T08:56:19.559Z,22.10
2022-07-29T08:58:52.258Z,21.70
2022-07-29T09:01:36.580Z,21.70
2022-07-29T09:04:14.701Z,22.80
2022-07-29T09:06:46.942Z,22.40
2022-07-29T09:09:16.262Z,22.10
2022-07-29T09:11:44.563Z,23.00
2022-07-29T09:14:15.238Z,23.30
2022-07-29T09:16:53.635Z,23.70
2022-07-29T09:19:33.287Z,23.00
2022-07-29T09:22:03.389Z,23.20
2022-07-29T09:24:43.801Z,24.10
2022-07-29T09:27:23.127Z,24.40
2022-07-29T09:29:59.497Z,24.40
2022-07-29T09:32:28.518Z,24.80
2022-07-29T09:35:24.293Z,24.60
2022-07-29T09:37:52.971Z,24.60
2022-07-29T09:40:23.612Z,24.00
2022-07-29T09:42:52.561Z,24.40
2022-07-29T09:45:30.750Z,24.10
2022-07-29T09:48:01.804Z,23.70
2022-07-29T09:50:42.129Z,23.40
2022-07-29T09:53:11.822Z,24.90
2022-07-29T09:55:51.687Z,25.20
2022-07-29T09:58:22.230Z,25.60
2022-07-29T10:00:51.964Z,25.20
2022-07-29T10:03:21.046Z,26.80
2022-07-29T10:06:07.475Z,26.50
2022-07-29T10:08:36.075Z,26.20
2022-07-29T10:11:15.499Z,26.20
2022-07-29T10:13:45.159Z,26.00
2022-07-29T10:16:14.345Z,25.60
2022-07-29T10:18:43.701Z,25.00
2022-07-29T10:21:35.673Z,25.00
2022-07-29T10:24:02.033Z,25.30
2022-07-29T10:26:31.578Z,26.70
2022-07-29T10:29:00.976Z,26.70
2022-07-29T10:31:36.904Z,26.30
2022-07-29T10:34:16.104Z,25.70
2022-07-29T10:36:57.243Z,25.90
2022-07-29T10:39:44.492Z,26.50
2022-07-29T10:42:20.375Z,27.10
2022-07-29T10:45:04.351Z,26.80
2022-07-29T10:47:35.536Z,26.90
2022-07-29T10:50:06.417Z,26.80
2022-07-29T10:52:58.562Z,28.00
2022-07-29T10:55:35.758Z,28.40
2022-07-29T10:58:15.535Z,29.10
2022-07-29T11:00:47.951Z,28.50
2022-07-29T11:03:50.603Z,26.90
2022-07-29T11:06:28.023Z,27.30
2022-07-29T11:09:20.295Z,28.30
2022-07-29T11:11:53.948Z,27.70
2022-07-29T11:15:00.274Z,26.70
2022-07-29T11:17:37.528Z,26.30
2022-07-29T11:20:38.124Z,26.20
2022-07-29T11:23:25.303Z,26.60
2022-07-29T11:26:18.918Z,26.30
2022-07-29T11:28:53.788Z,25.70
2022-07-29T11:31:34.919Z,25.90
2022-07-29T11:34:18.981Z,25.80
2022-07-29T11:37:18.069Z,25.80
2022-07-29T11:39:50.939Z,26.00
2022-07-29T11:42:42.267Z,26.10
2022-07-29T11:45:42.466Z,26.50
2022-07-29T11:48:28.888Z,26.30
2022-07-29T11:50:56.102Z,26.30
2022-07-29T11:53:28.944Z,25.90
2022-07-29T11:56:02.615Z,26.00
2022-07-29T11:58:33.709Z,25.90
2022-07-29T12:01:04.791Z,26.10
2022-07-29T12:03:36.088Z,26.40
2022-07-29T12:06:07.585Z,27.00
2022-07-29T12:08:42.828Z,26.40
2022-07-29T12:11:20.783Z,26.90
2022-07-29T12:13:51.773Z,26.90
2022-07-29T12:16:26.114Z,26.90
2022-07-29T12:19:02.221Z,26.30
2022-07-29T12:21:31.039Z,26.60
2022-07-29T12:24:05.911Z,26.40
2022-07-29T12:26:40.360Z,26.70
2022-07-29T12:29:20.064Z,26.50
2022-07-29T12:31:49.190Z,27.00
2022-07-29T12:34:18.415Z,26.40
2022-07-29T12:36:46.600Z,26.20
2022-07-29T12:39:15.231Z,26.30
2022-07-29T12:41:43.826Z,26.90
2022-07-29T12:44:13.386Z,27.50
2022-07-29T12:46:42.052Z,27.40
2022-07-29T12:49:10.289Z,28.30
2022-07-29T12:51:39.845Z,28.40
2022-07-29T12:54:11.392Z,27.90
2022-07-29T12:56:44.530Z,28.30
2022-07-29T12:59:21.779Z,28.00
2022-07-29T13:01:51.816Z,28.70
2022-07-29T13:04:30.101Z,28.40
2022-07-29T13:07:04.810Z,27.30
2022-07-29T13:09:41.038Z,26.90
2022-07-29T13:12:11.307Z,27.30
2022-07-29T13:14:42.353Z,26.90
2022-07-29T13:17:12.219Z,27.50
2022-07-29T13:19:42.375Z,27.50
2022-07-29T13:22:10.783Z,27.40
2022-07-29T13:24:49.332Z,28.30
2022-07-29T13:27:18.176Z,29.10
2022-07-29T13:29:48.486Z,27.90
2022-07-29T13:32:16.778Z,27.40
2022-07-29T13:34:44.941Z,29.10
2022-07-29T13:37:13.159Z,29.30
2022-07-29T13:39:41.472Z,28.80
2022-07-29T13:42:11.129Z,28.20
2022-07-29T13:44:39.424Z,28.60
2022-07-29T13:47:09.717Z,28.00
2022-07-29T13:49:38.086Z,28.60
2022-07-29T13:52:08.406Z,27.70
2022-07-29T13:54:42.044Z,27.70
2022-07-29T13:57:11.714Z,29.20
2022-07-29T13:59:40.513Z,29.00
2022-07-29T14:02:11.033Z,28.30
2022-07-29T14:04:39.630Z,28.80
2022-07-29T14:07:08.305Z,28.90
2022-07-29T14:09:40.965Z,27.50
2022-07-29T14:12:10.966Z,27.20
2022-07-29T14:14:39.444Z,27.60
2022-07-29T14:17:09.358Z,27.90
2022-07-29T14:19:39.196Z,28.00
2022-07-29T14:22:09.001Z,28.40
2022-07-29T14:24:37.726Z,27.50
2022-07-29T14:27:06.877Z,27.50
2022-07-29T14:29:37.997Z,27.30
2022-07-29T14:32:08.126Z,27.80
2022-07-29T14:34:38.574Z,28.40
2022-07-29T14:37:07.890Z,29.00
2022-07-29T14:39:42.521Z,28.00
2022-07-29T14:42:13.045Z,28.40
2022-07-29T14:44:42.298Z,28.60
2022-07-29T14:47:11.624Z,29.70
2022-07-29T14:49:41.858Z,29.90
2022-07-29T14:52:09.938Z,28.50
2022-07-29T14:54:38.087Z,29.30
2022-07-29T14:57:06.544Z,29.20
2022-07-29T14:59:34.641Z,29.20
2022-07-29T15:02:03.703Z,28.60
2022-07-29T15:04:32.412Z,28.10
2022-07-29T15:07:01.799Z,27.20
2022-07-29T15:09:30.003Z,28.10
2022-07-29T15:11:58.377Z,28.20
2022-07-29T15:14:26.884Z,27.40
2022-07-29T15:16:55.023Z,27.90
2022-07-29T15:19:23.235Z,28.40
2022-07-29T15:21:51.610Z,29.00
2022-07-29T15:24:21.615Z,29.20
2022-07-29T15:26:50.245Z,29.10
2022-07-29T15:29:18.328Z,28.10
2022-07-29T15:31:46.656Z,27.80
2022-07-29T15:34:14.828Z,27.90
2022-07-29T15:36:52.837Z,28.40
2022-07-29T15:39:23.761Z,28.30
2022-07-29T15:41:52.402Z,28.70
2022-07-29T15:44:21.281Z,28.90
2022-07-29T15:47:03.958Z,28.40
2022-07-29T15:49:47.689Z,27.90
2022-07-29T15:52:18.582Z,28.50
2022-07-29T15:54:48.586Z,28.80
2022-07-29T15:57:16.746Z,28.60
2022-07-29T15:59:44.802Z,27.80
2022-07-29T16:02:13.291Z,27.80
2022-07-29T16:04:41.437Z,28.50
2022-07-29T16:07:09.549Z,28.70
2022-07-29T16:09:37.710Z,28.20
2022-07-29T16:12:14.806Z,27.90
2022-07-29T16:14:44.728Z,27.90
2022-07-29T16:17:14.860Z,27.80
2022-07-29T16:19:43.301Z,27.80
2022-07-29T16:22:11.851Z,28.00
2022-07-29T16:24:39.921Z,28.10
2022-07-29T16:27:09.467Z,28.20
2022-07-29T16:29:38.018Z,27.70
2022-07-29T16:32:07.727Z,28.10
2022-07-29T16:34:36.350Z,27.80
2022-07-29T16:37:05.134Z,27.50
2022-07-29T16:39:33.827Z,27.90
2022-07-29T16:42:05.317Z,27.80
2022-07-29T16:44:35.364Z,28.20
2022-07-29T16:47:04.808Z,27.90
2022-07-29T16:49:33.331Z,27.50
2022-07-29T16:52:01.391Z,27.40
2022-07-29T16:54:29.554Z,27.20
2022-07-29T16:56:58.175Z,27.10
2022-07-29T16:59:26.369Z,27.20
2022-07-29T17:01:55.949Z,27.10
2022-07-29T17:04:24.085Z,26.90
2022-07-29T17:06:52.587Z,27.40
2022-07-29T17:09:21.092Z,27.40
2022-07-29T17:11:55.038Z,27.20
2022-07-29T17:14:25.065Z,27.20
2022-07-29T17:17:01.132Z,27.10
2022-07-29T17:19:31.369Z,26.80
2022-07-29T17:22:08.394Z,26.80
2022-07-29T17:24:40.861Z,26.60
2022-07-29T17:27:09.761Z,26.80
2022-07-29T17:29:38.952Z,26.90
2022-07-29T17:32:09.725Z,26.90
2022-07-29T17:34:38.569Z,26.60
2022-07-29T17:37:08.440Z,26.70
2022-07-29T17:39:36.960Z,26.70
2022-07-29T17:42:06.056Z,27.00
2022-07-29T17:44:36.219Z,27.30
2022-07-29T17:47:05.187Z,27.30
2022-07-29T17:49:36.375Z,27.30
2022-07-29T17:52:06.435Z,27.10
2022-07-29T17:54:34.611Z,27.20
2022-07-29T17:57:03.023Z,27.00
2022-07-29T17:59:31.093Z,26.90
2022-07-29T18:01:59.219Z,26.80
2022-07-29T18:04:28.983Z,26.20
2022-07-29T18:06:58.667Z,26.40
2022-07-29T18:09:26.889Z,26.20
2022-07-29T18:11:55.033Z,26.30
2022-07-29T18:14:23.065Z,26.60
2022-07-29T18:16:51.259Z,26.60
2022-07-29T18:19:19.378Z,26.40
2022-07-29T18:21:54.662Z,26.30
2022-07-29T18:24:27.553Z,26.00
2022-07-29T18:26:56.576Z,26.00
2022-07-29T18:29:24.991Z,26.20
2022-07-29T18:31:53.050Z,26.20
2022-07-29T18:34:21.494Z,26.00
2022-07-29T18:36:49.547Z,26.00
2022-07-29T18:39:20.259Z,26.10
2022-07-29T18:41:51.603Z,26.10
2022-07-29T18:44:22.046Z,26.00
2022-07-29T18:46:51.766Z,25.90
2022-07-29T18:49:20.231Z,25.80
2022-07-29T18:51:48.490Z,25.70
2022-07-29T18:54:17.500Z,25.60
2022-07-29T18:56:45.948Z,25.60
2022-07-29T18:59:19.710Z,25.60
2022-07-29T19:01:48.551Z,25.50
2022-07-29T19:04:17.124Z,25.50
2022-07-29T19:06:45.651Z,25.40
2022-07-29T19:09:13.760Z,25.40
2022-07-29T19:11:41.963Z,25.40
2022-07-29T19:14:10.513Z,25.30
2022-07-29T19:16:39.964Z,25.10
2022-07-29T19:19:08.829Z,25.10
2022-07-29T19:21:36.921Z,25.00
2022-07-29T19:24:08.537Z,25.00
2022-07-29T19:26:44.000Z,25.00
2022-07-29T19:29:12.126Z,24.90
2022-07-29T19:31:41.840Z,24.90
2022-07-29T19:34:10.251Z,24.90
2022-07-29T19:36:38.781Z,24.60
2022-07-29T19:39:07.110Z,24.50
2022-07-29T19:41:35.566Z,24.40
2022-07-29T19:44:03.727Z,24.40
2022-07-29T19:46:31.879Z,24.30
2022-07-29T19:49:01.971Z,24.30
2022-07-29T19:51:30.005Z,24.30
2022-07-29T19:53:58.339Z,24.30
2022-07-29T19:56:27.374Z,24.30
2022-07-29T19:58:56.761Z,24.10
2022-07-29T20:01:25.742Z,24.00
2022-07-29T20:03:53.915Z,23.90
2022-07-29T20:06:23.790Z,23.80
2022-07-29T20:08:55.420Z,23.80
2022-07-29T20:11:26.491Z,23.80
2022-07-29T20:13:54.562Z,23.70
2022-07-29T20:16:23.005Z,23.70
2022-07-29T20:18:53.523Z,23.70
2022-07-29T20:21:23.350Z,23.70
2022-07-29T20:23:51.400Z,23.70
2022-07-29T20:26:19.487Z,23.60
2022-07-29T20:28:49.403Z,23.50
2022-07-29T20:31:18.873Z,23.50
2022-07-29T20:33:47.159Z,23.50
2022-07-29T20:36:15.671Z,23.40
2022-07-29T20:38:45.062Z,23.30
2022-07-29T20:41:13.190Z,23.40
2022-07-29T20:43:41.446Z,23.30
2022-07-29T20:46:10.087Z,23.30
2022-07-29T20:48:39.802Z,23.40
2022-07-29T20:51:08.374Z,23.30
2022-07-29T20:53:38.315Z,23.30
2022-07-29T20:56:09.015Z,23.30
2022-07-29T20:58:38.162Z,23.30
2022-07-29T21:01:06.939Z,23.10
2022-07-29T21:03:35.131Z,23.00
2022-07-29T21:06:03.286Z,23.00
2022-07-29T21:08:31.405Z,23.00
2022-07-29T21:10:59.484Z,22.90
2022-07-29T21:13:28.954Z,22.90
2022-07-29T21:16:04.298Z,22.90
2022-07-29T21:18:37.406Z,22.70
2022-07-29T21:21:06.671Z,22.70
2022-07-29T21:23:35.021Z,22.70
2022-07-29T21:26:03.089Z,22.60
2022-07-29T21:28:36.840Z,22.60
2022-07-29T21:31:07.483Z,22.60
2022-07-29T21:33:36.233Z,22.60
2022-07-29T21:38:53.794Z,22.50
2022-07-29T21:41:22.642Z,22.50
2022-07-29T21:43:52.133Z,22.40
2022-07-29T21:46:21.797Z,22.40
2022-07-29T21:48:52.702Z,22.40
2022-07-29T21:51:20.759Z,22.40
2022-07-29T21:53:48.930Z,22.30
2022-07-29T21:56:18.023Z,22.30
2022-07-29T21:58:46.551Z,22.20
2022-07-29T22:01:16.035Z,22.20
2022-07-29T22:03:44.139Z,22.20
2022-07-29T22:06:17.974Z,22.20
2022-07-29T22:08:47.970Z,22.10
2022-07-29T22:11:16.598Z,22.00
2022-07-29T22:13:44.714Z,22.10
2022-07-29T22:16:14.984Z,22.00
2022-07-29T22:18:46.898Z,21.90
2022-07-29T22:21:15.795Z,21.90
2022-07-29T22:23:43.866Z,21.90
2022-07-29T22:26:11.999Z,21.90
2022-07-29T22:28:40.548Z,21.80
2022-07-29T22:31:08.794Z,21.80
2022-07-29T22:33:37.571Z,21.80
2022-07-29T22:36:07.636Z,21.80
2022-07-29T22:38:35.765Z,21.70
2022-07-29T22:41:03.849Z,21.70
2022-07-29T22:43:31.863Z,21.70
2022-07-29T22:45:59.970Z,21.60
2022-07-29T22:48:28.607Z,21.50
2022-07-29T22:50:56.626Z,21.50
2022-07-29T22:53:26.423Z,21.50
2022-07-29T22:55:54.635Z,21.40
2022-07-29T22:58:23.006Z,21.50
2022-07-29T23:00:51.061Z,21.50
2022-07-29T23:03:19.186Z,21.40
2022-07-29T23:05:47.342Z,21.40
2022-07-29T23:08:15.410Z,21.40
2022-07-29T23:10:44.807Z,21.30
2022-07-29T23:13:13.200Z,21.40
2022-07-29T23:15:41.371Z,21.40
2022-07-29T23:18:09.460Z,21.40
2022-07-29T23:20:37.666Z,21.40
2022-07-29T23:23:05.736Z,21.30
2022-07-29T23:25:34.096Z,21.30
2022-07-29T23:28:03.921Z,21.30
2022-07-29T23:30:32.168Z,21.30
2022-07-29T23:33:00.641Z,21.40
2022-07-29T23:35:28.850Z,21.30
2022-07-29T23:37:56.933Z,21.30
2022-07-29T23:40:24.987Z,21.40
2022-07-29T23:42:53.134Z,21.50
2022-07-29T23:45:22.571Z,21.50
2022-07-29T23:48:10.613Z,21.60
2022-07-29T23:50:38.718Z,21.60
2022-07-29T23:53:06.814Z,21.50
2022-07-29T23:55:36.710Z,21.50
2022-07-29T23:58:07.471Z,21.50
